AirNav   Air Wisconsin pilot careers
 
 1544 users online  

0IS9 Bernardin Heliport
West Brooklyn, Illinois, USA

GOING TO WEST BROOKLYN?


FAA INFORMATION EFFECTIVE 07 DECEMBER 2017

Location

FAA Identifier: 0IS9
Lat/Long: 41-42-30.1150N / 089-12-10.3310W
41-42.501917N / 089-12.172183W
41.7083653 / -89.2028697
(estimated)
Elevation: 830 ft. / 253 m (estimated)
Variation: 00E (1985)
From city: 4 miles NW of WEST BROOKLYN, IL
Time zone: UTC -6 (UTC -5 during Daylight Saving Time)
Zip code: 61378

Heliport Operations

Heliport use: Private use. Permission required prior to landing
Activation date: 11/1982
Control tower: no
ARTCC: CHICAGO CENTER
FSS: KANKAKEE FLIGHT SERVICE STATION
Attendance: DAWN-DUSK
Wind indicator: yes
Segmented circle: no

Heliport Communications

WX AWOS-3 at RPJ (12 nm NE): 125.2 (815-562-2955)
WX AWOS-AV at C73 (13 nm NW): 118.575 (815-288-2039)

Nearby radio navigation aids

VOR radial/distance  VOR name  Freq  Var
PLLr134/21.1POLO VOR/DME111.2003E
RFDr179/31.0ROCKFORD VOR/DME110.8001E
BDFr028/37.2BRADFORD VORTAC114.7000E
DPAr252/39.7DUPAGE VOR/DME108.4002E

 
NDB name  Hdg/Dist  Freq  Var  ID
WHITESIDE089/26.125401EBOZ -... --- --..

Heliport Services

Runway Information

Helipad H1

Dimensions: 500 x 500 ft. / 152 x 152 m
Surface: turf
Traffic pattern: leftleft

Heliport Ownership and Management from official FAA records

Ownership: Privately-owned
Owner: MARVIN BERNARDIN
2240 SHAW ROAD
WEST BROOKLYN, IL 61378
Phone 815-628-3431
Manager: MIKE GEHANT
812 14TH AVE.
MENDOTA, IL 61342
Phone 815-503-1853

Instrument Procedures

There are no published instrument procedures at 0IS9.

Some nearby airports with instrument procedures:

KRPJ - Rochelle Municipal Airport-Koritz Field (12 nm NE)
C73 - Dixon Municipal Airport-Charles R. Walgreen Field (13 nm NW)
KSQI - Whiteside County Airport-Jos H Bittorf Field (21 nm W)
KVYS - Illinois Valley Regional Airport-Walter A Duncan Field (22 nm S)
KDKB - De Kalb Taylor Municipal Airport (26 nm NE)
 
Loc | Ops | Rwys | IFR | FBO | Links
Com | Nav | Svcs | Stats | Notes


 
Area around 0IS9 (Bernardin Heliport)
 
Road maps at: MapQuest Bing Google
 
Aerial photo
No photo
 
Sectional chart

 
Airport distance calculator
Flying to Bernardin Heliport? Find the distance to fly.

From to 0IS9

Sunrise and sunset
Times for 11-Dec-2017
 Local
(UTC-6)
 Zulu
(UTC)
Morning civil twilight06:4312:43
Sunrise07:1513:15
Sunset16:2522:25
Evening civil twilight16:5722:57

Current date and time
Zulu (UTC)  11-Dec-2017 20:55:07
Local (UTC-6)  11-Dec-2017 14:55:07
 
METAR
KRPJ 
12nm NE 
112035Z AUTO 00000KT 10SM CLR 03/M02 A2968 RMK AO2 T00321025
KSQI 
21nm W 
111956Z AUTO 35005KT 10SM CLR 06/M02 A2967 RMK AO2 SLP070 T00611022
KVYS 
22nm S 
112035Z AUTO 28010KT 10SM CLR 06/M03 A2966 RMK AO2 T00581031
TAF
KRFD 
30nm N 
111748Z 1118/1218 15008KT P6SM SCT080 BKN120 FM112100 33008KT P6SM -SN SCT020 OVC050 TEMPO 1122/1201 5SM -SHSN OVC015 FM120100 33018G28KT P6SM -SHSN OVC025 FM120800 33016G23KT P6SM SCT035
NOTAMs
Click for the latest NOTAMs
NOTAMs are issued by the DoD/FAA and will open in a separate window not controlled by AirNav.

 

 
 

Would you like to see your business listed on this page?

 If your business provides an interesting product or service to pilots, flight crews, aircraft, or users of the Bernardin Heliport, you should consider listing it here.  To start the listing process, click on the button below
 
Add a business
 

Other Pages about Bernardin Heliport

Update a link
 
Copyright © AirNav, LLC. All rights reserved. Privacy Policy  Contact